Time;durP1;ratioP1;P1;durP2;ratioP2;P2;SDS_P1;SDS_P2;PMS_P1;PMS_P2;Temp;Humidity;BMP_temperature;BMP_pressure;BME280_temperature;BME280_humidity;BME280_pressure;Samples;Min_cycle;Max_cycle;Signal;HPM_P1;HPM_P2
2023/05/15 00:02:17;;;;;;;32.78;26.13;;;;;;;11.17;100.00;101390.56;5262692;28;20387;-64
2023/05/15 00:04:49;;;;;;;36.58;26.33;;;;;;;11.13;100.00;101391.75;5256836;28;20045;-64
2023/05/15 00:07:20;;;;;;;33.88;25.92;;;;;;;11.12;100.00;101382.03;5261626;28;20074;-63
2023/05/15 00:09:51;;;;;;;34.13;25.98;;;;;;;11.07;100.00;101376.16;5267212;28;20107;-63
2023/05/15 00:12:23;;;;;;;35.53;26.75;;;;;;;11.05;100.00;101377.25;5257206;28;20137;-64
2023/05/15 00:14:54;;;;;;;38.15;25.88;;;;;;;11.00;100.00;101374.88;5254790;28;20025;-63
2023/05/15 00:17:26;;;;;;;34.45;25.83;;;;;;;10.97;100.00;101369.75;5255707;28;20032;-63
2023/05/15 00:19:58;;;;;;;35.50;26.42;;;;;;;10.96;100.00;101374.22;5256308;28;20036;-64
2023/05/15 00:22:30;;;;;;;36.15;26.35;;;;;;;10.94;100.00;101380.66;5256277;28;20024;-63
2023/05/15 00:25:01;;;;;;;36.10;26.02;;;;;;;10.89;100.00;101377.44;5253881;28;20033;-63
2023/05/15 00:27:33;;;;;;;35.92;27.77;;;;;;;10.87;100.00;101376.69;5260150;28;20067;-64
2023/05/15 00:30:05;;;;;;;36.00;26.45;;;;;;;10.85;100.00;101367.94;5256945;28;20439;-64
2023/05/15 00:32:37;;;;;;;35.95;27.17;;;;;;;10.81;100.00;101361.09;5263238;28;20033;-64
2023/05/15 00:35:08;;;;;;;35.08;28.05;;;;;;;10.75;100.00;101363.22;5255529;28;20094;-64
2023/05/15 00:37:39;;;;;;;38.28;26.98;;;;;;;10.74;100.00;101368.69;5256444;28;20039;-64
2023/05/15 00:40:17;;;;;;;36.40;27.95;;;;;;;10.69;100.00;101357.47;5259830;28;20024;-64
2023/05/15 00:42:49;;;;;;;35.97;27.83;;;;;;;10.68;100.00;101369.09;5255565;28;20110;-64
2023/05/15 00:45:23;;;;;;;38.63;27.65;;;;;;;10.64;100.00;101357.75;5260507;28;20032;-64
2023/05/15 00:47:56;;;;;;;37.38;27.20;;;;;;;10.62;100.00;101365.03;5255997;28;20041;-64
2023/05/15 00:50:29;;;;;;;39.80;28.20;;;;;;;10.61;100.00;101359.81;5255956;28;20035;-64
2023/05/15 00:53:02;;;;;;;37.22;28.10;;;;;;;10.55;100.00;101353.94;5255246;28;20108;-64
2023/05/15 00:55:35;;;;;;;39.83;27.90;;;;;;;10.56;100.00;101360.97;5256248;28;20025;-64
2023/05/15 00:58:07;;;;;;;36.50;28.42;;;;;;;10.53;100.00;101352.34;5260293;28;20036;-64
2023/05/15 01:00:38;;;;;;;40.60;29.10;;;;;;;10.51;100.00;101356.94;5255410;28;20040;-65
2023/05/15 01:03:10;;;;;;;38.58;28.98;;;;;;;10.49;100.00;101350.81;5260398;28;20055;-64
2023/05/15 01:05:41;;;;;;;41.13;28.63;;;;;;;10.43;100.00;101349.41;5259139;28;20053;-64
2023/05/15 01:08:34;;;;;;;42.65;29.08;;;;;;;10.45;100.00;101344.84;5259569;28;20032;-64
2023/05/15 01:11:07;;;;;;;40.97;29.85;;;;;;;10.35;100.00;101347.25;5263504;28;20037;-64
2023/05/15 01:13:39;;;;;;;38.83;28.40;;;;;;;10.35;100.00;101341.94;5264976;28;20028;-64
2023/05/15 01:16:11;;;;;;;42.15;29.50;;;;;;;10.29;100.00;101344.97;5257737;28;20063;-65
2023/05/15 01:18:42;;;;;;;41.05;28.80;;;;;;;10.31;100.00;101337.75;5259338;28;20020;-64
2023/05/15 01:21:35;;;;;;;39.90;28.52;;;;;;;10.28;100.00;101343.28;5253954;28;20051;-64
2023/05/15 01:24:25;;;;;;;39.72;29.55;;;;;;;10.27;100.00;101343.38;5255100;28;20482;-64
2023/05/15 01:27:18;;;;;;;42.78;29.55;;;;;;;10.27;100.00;101343.38;5256706;28;20028;-64
2023/05/15 01:29:53;;;;;;;39.72;28.98;;;;;;;10.24;100.00;101341.78;5257003;28;20046;-64
2023/05/15 01:32:43;;;;;;;44.25;29.67;;;;;;;10.19;100.00;101342.09;5251052;28;20102;-64
2023/05/15 01:35:22;;;;;;;41.58;28.20;;;;;;;10.18;100.00;101343.06;5254167;28;20044;-65
2023/05/15 01:38:07;;;;;;;40.78;30.20;;;;;;;10.23;100.00;101341.88;5255663;28;20029;-64
2023/05/15 01:40:40;;;;;;;42.13;29.55;;;;;;;10.15;100.00;101337.06;5252527;28;20086;-64
2023/05/15 01:43:19;;;;;;;41.33;30.17;;;;;;;10.14;100.00;101335.34;5263449;28;20035;-64
2023/05/15 01:45:51;;;;;;;40.72;29.55;;;;;;;10.09;100.00;101335.66;5256828;28;20036;-64
2023/05/15 01:48:26;;;;;;;44.05;30.63;;;;;;;10.05;100.00;101335.94;5257179;28;20032;-64
2023/05/15 01:51:02;;;;;;;40.67;29.63;;;;;;;10.05;100.00;101330.63;5256802;28;20035;-64
2023/05/15 01:53:35;;;;;;;41.40;30.17;;;;;;;9.99;100.00;101316.75;5257434;28;20119;-64
2023/05/15 01:56:08;;;;;;;45.45;30.80;;;;;;;10.00;100.00;101323.78;5253781;28;20549;-65
2023/05/15 01:58:40;;;;;;;39.05;29.52;;;;;;;10.02;100.00;101319.22;5259008;28;20090;-64
2023/05/15 02:01:12;;;;;;;43.33;29.42;;;;;;;9.98;100.00;101317.69;5257519;28;20025;-64
2023/05/15 02:03:44;;;;;;;45.38;30.90;;;;;;;9.97;100.00;101317.78;5256539;28;20028;-64
2023/05/15 02:06:16;;;;;;;45.88;31.63;;;;;;;9.96;100.00;101310.78;5258152;28;20040;-64
2023/05/15 02:08:49;;;;;;;46.60;31.40;;;;;;;9.97;100.00;101316.00;5263516;28;20032;-64
2023/05/15 02:11:21;;;;;;;43.40;30.38;;;;;;;9.96;100.00;101316.94;5256480;28;20021;-64
2023/05/15 02:13:55;;;;;;;44.83;30.35;;;;;;;9.95;100.00;101306.38;5256691;28;20020;-64
2023/05/15 02:16:27;;;;;;;40.35;29.35;;;;;;;9.96;100.00;101314.28;5260697;28;20486;-64
2023/05/15 02:18:58;;;;;;;47.03;31.67;;;;;;;9.94;100.00;101316.19;5266900;28;20038;-64
2023/05/15 02:21:29;;;;;;;41.30;31.02;;;;;;;9.94;100.00;101321.53;5263158;28;20098;-64
2023/05/15 02:24:01;;;;;;;46.72;31.50;;;;;;;9.94;100.00;101316.19;5266763;28;20510;-64
2023/05/15 02:27:06;;;;;;;44.28;31.90;;;;;;;9.93;100.00;101314.50;5267637;28;20381;-64
2023/05/15 02:29:49;;;;;;;;;;;;;;;10.01;100.00;101309.50;5264348;28;20040;-64
2023/05/15 02:32:33;;;;;;;42.05;30.02;;;;;;;9.95;100.00;101309.06;5270480;28;19921;-64
2023/05/15 02:35:29;;;;;;;45.88;30.52;;;;;;;9.93;100.00;101319.84;5273512;28;20037;-64
2023/05/15 02:38:07;;;;;;;48.58;33.88;;;;;;;9.91;100.00;101337.72;5262838;28;20037;-64
2023/05/15 02:40:39;;;;;;;45.15;33.33;;;;;;;9.89;100.00;101339.63;5270351;28;20028;-65
2023/05/15 02:43:13;;;;;;;45.00;32.08;;;;;;;9.86;100.00;101339.00;5261545;28;20384;-64
2023/05/15 02:45:46;;;;;;;48.70;35.03;;;;;;;9.82;100.00;101339.19;5270121;28;20082;-64
2023/05/15 02:48:18;;;;;;;47.10;35.33;;;;;;;9.78;100.00;101335.03;5273619;28;20164;-64
2023/05/15 02:50:51;;;;;;;52.30;35.72;;;;;;;9.76;100.00;101338.72;5276891;28;20816;-64
2023/05/15 02:53:22;;;;;;;51.55;36.30;;;;;;;9.72;100.00;101331.88;5275049;28;20036;-64
2023/05/15 02:55:53;;;;;;;53.30;37.58;;;;;;;9.70;100.00;101325.81;5264440;28;20027;-64
2023/05/15 02:58:25;;;;;;;55.25;36.95;;;;;;;9.69;100.00;101338.28;5266988;28;20513;-64
2023/05/15 03:00:56;;;;;;;56.47;37.08;;;;;;;9.65;100.00;101325.28;5274014;28;20364;-62
2023/05/15 03:03:28;;;;;;;60.42;38.95;;;;;;;9.62;100.00;101328.97;5264260;28;20090;-64
2023/05/15 03:06:02;;;;;;;57.13;37.45;;;;;;;9.58;100.00;101322.97;5276545;28;20041;-64
2023/05/15 03:08:33;;;;;;;;;;;;;;;9.66;100.00;101321.63;5260062;28;20037;-64
2023/05/15 03:11:05;;;;;;;58.65;36.40;;;;;;;9.55;100.00;101319.66;5268926;28;19922;-64
2023/05/15 03:13:36;;;;;;;57.85;37.33;;;;;;;9.51;100.00;101328.81;5272662;28;20114;-64
2023/05/15 03:16:08;;;;;;;55.72;38.25;;;;;;;9.48;100.00;101324.53;5268430;28;20032;-64
2023/05/15 03:18:40;;;;;;;57.63;38.30;;;;;;;9.46;100.00;101326.44;5267327;28;20025;-64
2023/05/15 03:21:12;;;;;;;58.45;37.45;;;;;;;9.39;100.00;101317.13;5264851;28;20124;-63
2023/05/15 03:23:43;;;;;;;60.58;38.60;;;;;;;9.37;100.00;101319.88;5261493;28;20036;-64
2023/05/15 03:26:14;;;;;;;59.63;39.75;;;;;;;9.34;100.00;101319.22;5271271;28;20043;-64
2023/05/15 03:28:46;;;;;;;61.75;38.90;;;;;;;9.33;100.00;101323.69;5265309;28;20028;-64
2023/05/15 03:31:17;;;;;;;63.38;37.88;;;;;;;9.33;100.00;101320.19;5261844;28;20025;-64
2023/05/15 03:33:50;;;;;;;64.53;40.42;;;;;;;9.31;100.00;101316.78;5260203;28;20044;-64
2023/05/15 03:36:21;;;;;;;60.60;40.20;;;;;;;9.27;100.00;101310.78;5259278;28;20025;-64
2023/05/15 03:38:53;;;;;;;62.58;39.72;;;;;;;9.25;100.00;101312.69;5257007;28;20027;-64
2023/05/15 03:41:26;;;;;;;66.00;41.30;;;;;;;9.32;100.00;101308.69;5260248;28;20473;-64
2023/05/15 03:43:57;;;;;;;64.60;40.65;;;;;;;9.30;100.00;101307.06;5257440;28;20052;-65
2023/05/15 03:46:29;;;;;;;64.68;40.05;;;;;;;9.25;100.00;101312.69;5261522;28;20024;-64
2023/05/15 03:49:00;;;;;;;63.38;40.70;;;;;;;9.20;100.00;101304.13;5258028;28;20493;-65
2023/05/15 03:51:32;;;;;;;68.30;41.17;;;;;;;9.18;100.00;101298.06;5259587;28;20478;-64
2023/05/15 03:54:04;;;;;;;62.50;40.88;;;;;;;9.21;100.00;101309.38;5256914;28;20033;-64
2023/05/15 03:56:36;;;;;;;61.03;39.80;;;;;;;9.19;100.00;101305.09;5260117;28;20075;-64
2023/05/15 03:59:07;;;;;;;64.18;41.15;;;;;;;9.20;100.00;101309.44;5259393;28;20112;-64
2023/05/15 04:01:38;;;;;;;68.20;43.38;;;;;;;9.19;100.00;101310.44;5257037;28;20025;-64
2023/05/15 04:04:10;;;;;;;64.40;40.85;;;;;;;9.17;100.00;101299.88;5257422;28;20021;-64
2023/05/15 04:06:41;;;;;;;66.72;42.53;;;;;;;9.14;100.00;101309.84;5261002;28;20031;-64
2023/05/15 04:09:12;;;;;;;63.65;40.92;;;;;;;9.16;100.00;101306.13;5258116;28;20032;-64
2023/05/15 04:11:45;;;;;;;65.28;41.15;;;;;;;9.13;100.00;101303.69;5261307;28;20089;-64
2023/05/15 04:14:16;;;;;;;64.72;40.92;;;;;;;9.12;100.00;101306.44;5249854;28;20032;-64
2023/05/15 04:16:48;;;;;;;64.75;41.83;;;;;;;9.09;100.00;101310.16;5252417;28;20029;-64
2023/05/15 04:19:19;;;;;;;66.35;42.72;;;;;;;9.05;100.00;101308.63;5256679;28;20107;-64
2023/05/15 04:21:50;;;;;;;67.10;41.55;;;;;;;9.03;100.00;101302.53;5259334;28;20450;-64
2023/05/15 04:24:22;;;;;;;67.03;41.03;;;;;;;9.03;100.00;101307.84;5258975;28;20553;-64
2023/05/15 04:26:53;;;;;;;66.65;43.45;;;;;;;9.03;100.00;101307.84;5252672;28;20379;-64
2023/05/15 04:29:25;;;;;;;67.40;41.72;;;;;;;9.00;100.00;101314.22;5264367;28;20059;-64
2023/05/15 04:31:56;;;;;;;67.85;42.45;;;;;;;8.99;100.00;101312.53;5259068;28;20468;-64
2023/05/15 04:34:28;;;;;;;69.32;43.33;;;;;;;9.01;100.00;101320.41;5255761;28;20032;-64
2023/05/15 04:37:00;;;;;;;71.65;43.42;;;;;;;9.02;100.00;101324.78;5261497;28;20702;-64
2023/05/15 04:39:31;;;;;;;68.63;43.65;;;;;;;9.03;100.00;101323.81;5259755;28;20033;-64
2023/05/15 04:42:03;;;;;;;73.53;44.15;;;;;;;9.07;100.00;101325.38;5263433;28;20041;-64
2023/05/15 04:44:34;;;;;;;78.18;45.80;;;;;;;9.11;100.00;101334.88;5256473;28;20048;-64
2023/05/15 04:47:06;;;;;;;75.28;46.13;;;;;;;9.17;100.00;101342.47;5260670;28;20529;-64
2023/05/15 04:49:41;;;;;;;80.88;48.70;;;;;;;9.23;100.00;101351.88;5262839;28;20400;-65
2023/05/15 04:52:12;;;;;;;82.65;47.67;;;;;;;9.27;100.00;101341.88;5256452;28;20025;-64
2023/05/15 04:54:44;;;;;;;80.03;47.55;;;;;;;9.30;100.00;101342.56;5255928;28;20031;-63
2023/05/15 04:57:17;;;;;;;79.05;48.15;;;;;;;9.34;100.00;101345.84;5259346;28;20067;-64
2023/05/15 04:59:49;;;;;;;81.78;47.58;;;;;;;9.39;100.00;101343.75;5257186;28;20040;-65
2023/05/15 05:02:21;;;;;;;78.82;47.15;;;;;;;9.42;100.00;101351.56;5256851;28;20067;-63
2023/05/15 05:04:52;;;;;;;80.15;47.65;;;;;;;9.41;100.00;101334.75;5253181;28;20045;-63
2023/05/15 05:07:24;;;;;;;85.45;48.10;;;;;;;9.46;100.00;101347.75;5263117;28;20074;-65
2023/05/15 05:09:55;;;;;;;82.43;48.95;;;;;;;9.45;100.00;101335.38;5255804;28;20362;-64
2023/05/15 05:12:26;;;;;;;77.70;47.58;;;;;;;9.49;100.00;101346.69;5263161;28;20052;-63
2023/05/15 05:14:58;;;;;;;80.78;46.47;;;;;;;9.46;100.00;101352.22;5259184;28;20060;-64
2023/05/15 05:17:30;;;;;;;84.13;48.30;;;;;;;9.49;100.00;101350.22;5255827;28;20021;-63
2023/05/15 05:20:01;;;;;;;79.80;44.47;;;;;;;9.55;100.00;101348.97;5263720;28;20024;-64
2023/05/15 05:22:33;;;;;;;72.38;43.13;;;;;;;9.54;100.00;101353.44;5275049;28;20039;-64
2023/05/15 05:25:05;;;;;;;73.45;43.00;;;;;;;9.55;100.00;101355.16;5273468;28;20064;-64
2023/05/15 05:27:37;;;;;;;74.47;42.22;;;;;;;9.54;100.00;101353.44;5268917;28;20055;-64
2023/05/15 05:30:09;;;;;;;74.50;42.78;;;;;;;9.56;100.00;101361.34;5265174;28;20111;-64
2023/05/15 05:32:40;;;;;;;70.50;41.97;;;;;;;9.61;100.00;101361.91;5289769;28;20027;-64
2023/05/15 05:35:11;;;;;;;71.15;40.42;;;;;;;9.62;100.00;101369.78;5281178;28;20024;-64
2023/05/15 05:37:43;;;;;;;70.28;38.97;;;;;;;9.62;100.00;101366.25;5277578;28;20055;-64
2023/05/15 05:40:16;;;;;;;67.50;37.08;;;;;;;9.62;100.00;101363.59;5270831;28;20032;-64
2023/05/15 05:42:47;;;;;;;66.50;39.57;;;;;;;9.67;100.00;101376.66;5274569;28;20024;-64
2023/05/15 05:45:19;;;;;;;69.30;38.83;;;;;;;9.69;100.00;101377.41;5256917;28;20047;-63
2023/05/15 05:47:51;;;;;;;71.03;38.05;;;;;;;9.71;100.00;101373.69;5275577;28;20435;-64
2023/05/15 05:50:22;;;;;;;64.90;37.72;;;;;;;9.80;100.00;101383.75;5263545;28;20472;-64
2023/05/15 05:52:54;;;;;;;62.45;37.05;;;;;;;9.82;100.00;101378.31;5258164;28;20024;-64
2023/05/15 05:55:25;;;;;;;58.40;36.90;;;;;;;9.82;100.00;101371.19;5274427;28;20414;-64
2023/05/15 05:57:57;;;;;;;58.13;35.35;;;;;;;9.84;100.00;101378.19;5262789;28;20035;-64
2023/05/15 06:00:28;;;;;;;54.22;36.15;;;;;;;9.84;100.00;101371.09;5265519;28;20100;-64
2023/05/15 06:03:00;;;;;;;53.28;35.28;;;;;;;9.89;100.00;101374.28;5267921;28;20119;-64
2023/05/15 06:05:33;;;;;;;52.13;33.05;;;;;;;9.89;100.00;101371.63;5293311;27;20051;-64
2023/05/15 06:08:05;;;;;;;51.53;33.88;;;;;;;9.93;100.00;101370.47;5311884;27;20493;-64
2023/05/15 06:10:36;;;;;;;54.90;33.53;;;;;;;10.05;100.00;101376.81;5313330;27;20167;-63
2023/05/15 06:13:08;;;;;;;54.10;34.88;;;;;;;10.11;100.00;101373.75;5310267;27;20027;-64
2023/05/15 06:15:40;;;;;;;51.25;33.05;;;;;;;10.19;100.00;101376.75;5312168;27;20036;-64
2023/05/15 06:18:11;;;;;;;49.28;33.50;;;;;;;10.24;100.00;101368.47;5321303;27;20059;-64
2023/05/15 06:20:42;;;;;;;47.95;32.35;;;;;;;10.29;100.00;101365.47;5312820;27;20047;-64
2023/05/15 06:23:14;;;;;;;44.80;32.00;;;;;;;10.35;100.00;101368.59;5316941;27;20106;-64
2023/05/15 06:25:45;;;;;;;43.70;30.48;;;;;;;10.39;100.00;101364.78;5309498;27;20459;-64
2023/05/15 06:28:17;;;;;;;40.72;30.58;;;;;;;10.48;100.00;101375.78;5308715;27;20088;-64
2023/05/15 06:30:48;;;;;;;47.33;32.08;;;;;;;10.47;100.00;101369.63;5309974;27;20024;-64
2023/05/15 06:33:21;;;;;;;48.63;32.65;;;;;;;10.52;100.00;101370.13;5310568;27;20020;-64
2023/05/15 06:35:52;;;;;;;48.15;31.52;;;;;;;10.59;100.00;101378.59;5304780;27;20758;-64
2023/05/15 06:38:23;;;;;;;38.35;28.25;;;;;;;10.61;100.00;101370.50;5314909;27;20028;-64
2023/05/15 06:40:55;;;;;;;43.33;29.42;;;;;;;10.66;100.00;101371.00;5312359;27;20175;-64
2023/05/15 06:43:26;;;;;;;40.97;30.38;;;;;;;10.77;100.00;101360.44;5293969;28;20050;-64
2023/05/15 06:45:58;;;;;;;38.90;28.67;;;;;;;10.81;100.00;101359.28;5311188;27;20062;-64
2023/05/15 06:48:29;;;;;;;40.38;29.70;;;;;;;10.82;100.00;101363.66;5308838;27;20081;-64
2023/05/15 06:51:01;;;;;;;42.47;29.42;;;;;;;10.91;100.00;101355.03;5302176;28;20071;-64
2023/05/15 06:53:32;;;;;;;38.15;29.60;;;;;;;11.03;100.00;101361.31;5309237;27;20035;-63
2023/05/15 06:56:03;;;;;;;40.95;31.02;;;;;;;10.98;100.00;101355.44;5303346;27;20546;-64
2023/05/15 06:58:35;;;;;;;38.95;29.45;;;;;;;10.98;100.00;101358.09;5310694;27;20034;-64
2023/05/15 07:01:08;;;;;;;38.25;29.70;;;;;;;11.04;100.00;101364.84;5311663;27;20027;-64
2023/05/15 07:03:41;;;;;;;40.30;29.67;;;;;;;11.11;100.00;101358.09;5315147;27;20171;-64
2023/05/15 07:06:13;;;;;;;38.42;29.67;;;;;;;11.20;100.00;101354.78;5276535;28;20057;-64
2023/05/15 07:08:44;;;;;;;38.58;30.10;;;;;;;11.29;100.00;101351.44;5265791;28;20028;-64
2023/05/15 07:11:15;;;;;;;42.40;31.77;;;;;;;11.43;100.00;101358.50;5271911;28;20089;-64
2023/05/15 07:13:47;;;;;;;41.40;29.90;;;;;;;11.53;100.00;101356.84;5261169;28;20114;-64
2023/05/15 07:16:18;;;;;;;38.75;31.13;;;;;;;11.62;100.00;101354.47;5270815;28;20107;-64
2023/05/15 07:18:50;;;;;;;42.65;31.70;;;;;;;11.76;100.00;101354.31;5256817;28;20402;-64
2023/05/15 07:21:21;;;;;;;40.53;30.02;;;;;;;11.84;100.00;101356.44;5258950;28;20029;-64
2023/05/15 07:23:52;;;;;;;40.75;30.52;;;;;;;11.91;100.00;101355.91;5252095;28;20041;-64
2023/05/15 07:26:24;;;;;;;40.08;31.42;;;;;;;11.92;100.00;101356.75;5259882;28;20043;-64
2023/05/15 07:28:56;;;;;;;41.75;32.53;;;;;;;11.96;100.00;101353.72;5257316;28;20028;-63
2023/05/15 07:31:27;;;;;;;42.72;34.47;;;;;;;12.04;100.00;101350.50;5258571;28;20035;-64
2023/05/15 07:33:59;;;;;;;46.70;36.38;;;;;;;12.20;100.00;101347.53;5257788;28;20107;-64
2023/05/15 07:36:30;;;;;;;48.15;36.47;;;;;;;12.32;100.00;101337.72;5258911;28;20056;-64
2023/05/15 07:39:02;;;;;;;45.17;35.97;;;;;;;12.48;100.00;101342.72;5256964;28;20032;-64
2023/05/15 07:41:33;;;;;;;48.85;36.35;;;;;;;12.56;100.00;101340.34;5252132;28;20032;-64
2023/05/15 07:44:05;;;;;;;45.22;36.33;;;;;;;12.69;100.00;101342.91;5253439;28;20123;-64
2023/05/15 07:46:37;;;;;;;46.28;36.58;;;;;;;12.74;100.00;101348.75;5255698;28;20037;-65
2023/05/15 07:49:09;;;;;;;50.20;38.80;;;;;;;12.70;100.00;101345.47;5258972;28;20128;-63
2023/05/15 07:51:40;;;;;;;46.92;37.83;;;;;;;12.73;100.00;101339.88;5254438;28;20104;-64
2023/05/15 07:54:11;;;;;;;47.30;38.03;;;;;;;12.76;100.00;101333.44;5261393;28;20025;-64
2023/05/15 07:56:43;;;;;;;40.40;31.60;;;;;;;12.69;100.00;101330.34;5258608;28;20040;-64
2023/05/15 07:59:14;;;;;;;40.45;32.65;;;;;;;12.68;100.00;101326.00;5263191;28;20059;-64
2023/05/15 08:01:46;;;;;;;44.72;34.60;;;;;;;12.65;100.00;101320.03;5258463;28;20494;-64
2023/05/15 08:04:17;;;;;;;55.83;41.45;;;;;;;12.70;100.00;101331.25;5260241;28;20487;-64
2023/05/15 08:06:49;;;;;;;52.15;39.92;;;;;;;12.80;100.00;101334.06;5265921;28;20022;-64
2023/05/15 08:09:20;;;;;;;52.22;40.83;;;;;;;12.81;100.00;101327.69;5264014;28;20036;-64
2023/05/15 08:11:55;;;;;;;54.47;40.67;;;;;;;12.83;100.00;101336.47;5258207;28;20024;-64
2023/05/15 08:14:26;;;;;;;49.92;38.88;;;;;;;12.94;100.00;101333.81;5255591;28;20028;-64
2023/05/15 08:16:57;;;;;;;54.42;42.28;;;;;;;13.08;100.00;101330.91;5257797;28;20020;-65
2023/05/15 08:19:29;;;;;;;56.22;42.55;;;;;;;13.15;100.00;101333.94;5257929;28;20028;-66
2023/05/15 08:22:00;;;;;;;57.03;41.85;;;;;;;13.20;100.00;101336.25;5263424;28;20501;-64
2023/05/15 08:24:32;;;;;;;54.28;41.20;;;;;;;13.35;100.00;101332.38;5262081;28;20025;-64
2023/05/15 08:27:07;;;;;;;50.55;37.78;;;;;;;13.44;100.00;101333.44;5254597;28;20032;-64
2023/05/15 08:29:39;;;;;;;49.03;36.42;;;;;;;13.50;100.00;101325.78;5261714;28;20025;-64
2023/05/15 08:32:10;;;;;;;48.03;36.70;;;;;;;13.63;100.00;101322.94;5261039;28;20391;-64
2023/05/15 08:34:42;;;;;;;47.50;39.35;;;;;;;13.75;100.00;101323.78;5259684;28;20021;-64
2023/05/15 08:37:13;;;;;;;50.05;39.35;;;;;;;13.85;100.00;101327.41;5259438;28;20479;-64
2023/05/15 08:39:44;;;;;;;46.95;38.08;;;;;;;13.96;100.00;101331.00;5260575;28;20030;-64
2023/05/15 08:42:39;;;;;;;50.63;39.20;;;;;;;14.05;100.00;101332.94;5258589;28;20086;-64
2023/05/15 08:45:12;;;;;;;45.88;36.90;;;;;;;14.16;100.00;101329.34;5260191;28;20028;-64
2023/05/15 08:47:44;;;;;;;48.30;37.95;;;;;;;14.26;100.00;101322.22;5260039;28;20124;-64
2023/05/15 08:50:16;;;;;;;45.05;35.65;;;;;;;14.22;100.00;101321.63;5257081;28;20032;-64
2023/05/15 08:52:50;;;;;;;47.60;36.50;;;;;;;14.24;100.00;101327.72;5270277;28;20029;-64
2023/05/15 08:55:22;;;;;;;47.15;35.58;;;;;;;14.27;100.00;101324.78;5254833;28;20086;-64
2023/05/15 08:57:54;;;;;;;44.33;35.30;;;;;;;14.42;100.00;101321.75;5268967;28;20051;-64
2023/05/15 09:00:26;;;;;;;44.33;34.60;;;;;;;14.51;100.00;101323.66;5259492;28;20044;-64
2023/05/15 09:03:00;;;;;;;47.42;34.65;;;;;;;14.62;100.00;101318.25;5256748;28;20033;-64
2023/05/15 09:05:32;;;;;;;44.72;34.03;;;;;;;14.81;100.00;101316.69;5254677;28;20045;-64
2023/05/15 09:08:05;;;;;;;44.00;33.85;;;;;;;14.92;100.00;101321.97;5259838;28;20036;-64
2023/05/15 09:10:37;;;;;;;41.53;32.23;;;;;;;15.07;100.00;101326.00;5266977;28;20028;-64
2023/05/15 09:13:11;;;;;;;38.78;32.55;;;;;;;15.03;100.00;101321.88;5261259;28;20295;-64
2023/05/15 09:15:46;;;;;;;41.10;32.47;;;;;;;15.15;100.00;101319.94;5263750;28;20029;-64
2023/05/15 09:18:18;;;;;;;39.70;32.63;;;;;;;15.26;100.00;101319.84;5269532;28;20059;-64
2023/05/15 09:20:50;;;;;;;39.92;31.42;;;;;;;15.35;100.00;101317.31;5271450;28;20024;-64
2023/05/15 09:23:26;;;;;;;40.78;31.98;;;;;;;15.45;100.00;101324.41;5267034;28;20036;-64
2023/05/15 09:25:58;;;;;;;41.08;31.67;;;;;;;15.49;100.00;101316.91;5270715;28;20021;-64
2023/05/15 09:28:31;;;;;;;40.20;32.45;;;;;;;15.45;100.00;101324.41;5269983;28;20037;-65
2023/05/15 09:31:04;;;;;;;40.85;31.90;;;;;;;15.52;100.00;101318.50;5267189;28;20233;-67
2023/05/15 09:33:37;;;;;;;44.42;32.47;;;;;;;15.51;100.00;101319.47;5271377;28;20058;-65
2023/05/15 09:36:09;;;;;;;39.65;31.65;;;;;;;15.50;100.00;101321.31;5260179;28;20048;-65
2023/05/15 09:38:42;;;;;;;40.20;31.05;;;;;;;15.44;100.00;101320.03;5264156;28;20118;-65
2023/05/15 09:41:13;;;;;;;36.70;31.02;;;;;;;15.43;100.00;101312.09;5264782;28;20033;-64
2023/05/15 09:43:45;;;;;;;40.47;31.95;;;;;;;15.46;100.00;101314.53;5263094;28;20032;-64
2023/05/15 09:46:16;;;;;;;37.67;31.33;;;;;;;15.45;100.00;101320.88;5266715;28;20021;-64
2023/05/15 09:48:52;;;;;;;37.63;31.23;;;;;;;15.48;100.00;101320.63;5266260;28;20067;-64
2023/05/15 09:51:26;;;;;;;37.50;29.90;;;;;;;15.48;100.00;101329.53;5265519;28;20033;-65
2023/05/15 09:53:58;;;;;;;38.72;31.58;;;;;;;15.49;100.00;101317.78;5268711;28;20046;-65
2023/05/15 09:56:31;;;;;;;40.22;30.95;;;;;;;15.47;100.00;101325.16;5267228;28;20393;-64
2023/05/15 09:59:02;;;;;;;37.92;30.65;;;;;;;15.53;100.00;101328.25;5265496;28;20556;-64
2023/05/15 10:01:35;;;;;;;36.47;30.35;;;;;;;15.51;100.00;101330.25;5257777;28;20027;-64
2023/05/15 10:04:06;;;;;;;37.00;29.95;;;;;;;15.54;100.00;101324.59;5260229;28;20382;-65
2023/05/15 10:06:39;;;;;;;38.13;29.95;;;;;;;15.51;100.00;101320.31;5266295;28;20418;-64
2023/05/15 10:09:12;;;;;;;42.33;30.85;;;;;;;15.57;100.00;101329.69;5267852;28;20463;-64
2023/05/15 10:11:52;;;;;;;36.33;30.10;;;;;;;15.65;100.00;101332.56;5268933;28;20101;-64
2023/05/15 10:14:25;;;;;;;37.38;31.00;;;;;;;15.63;100.00;101324.63;5269025;28;20350;-64
2023/05/15 10:16:56;;;;;;;36.53;29.30;;;;;;;15.59;100.00;101331.25;5266185;28;20038;-65
2023/05/15 10:19:29;;;;;;;33.45;27.85;;;;;;;15.58;100.00;101336.78;5269079;28;20040;-64
2023/05/15 10:22:01;;;;;;;33.47;26.85;;;;;;;15.55;100.00;101328.97;5272682;28;20169;-64
2023/05/15 10:24:34;;;;;;;31.50;25.88;;;;;;;15.47;100.00;101340.41;5271990;28;20062;-64
2023/05/15 10:27:07;;;;;;;31.58;25.50;;;;;;;15.46;100.00;101334.19;5263882;28;20471;-64
2023/05/15 10:29:39;;;;;;;32.20;25.43;;;;;;;15.53;100.00;101329.09;5265448;28;20037;-65
2023/05/15 10:32:12;;;;;;;29.23;24.85;;;;;;;15.55;100.00;101331.66;5269614;28;20294;-64
2023/05/15 10:34:45;;;;;;;31.27;24.75;;;;;;;15.56;100.00;101333.38;5266491;28;20042;-64
2023/05/15 10:37:17;;;;;;;29.33;24.75;;;;;;;15.51;100.00;101338.31;5267260;28;20017;-64
2023/05/15 10:39:52;;;;;;;34.17;26.27;;;;;;;15.46;100.00;101344.13;5266440;28;20115;-64
2023/05/15 10:42:25;;;;;;;30.75;25.85;;;;;;;15.51;100.00;101341.84;5259558;28;20146;-64
2023/05/15 10:44:59;;;;;;;31.98;26.35;;;;;;;15.44;100.00;101332.63;5265945;28;20028;-64
2023/05/15 10:47:32;;;;;;;32.30;26.75;;;;;;;15.44;100.00;101335.34;5268099;28;20486;-64
2023/05/15 10:50:05;;;;;;;30.42;26.02;;;;;;;15.50;100.00;101345.53;5261833;28;20029;-65
2023/05/15 10:52:39;;;;;;;30.52;26.00;;;;;;;15.39;100.00;101348.31;5268037;28;20032;-64
2023/05/15 10:55:16;;;;;;;30.08;25.58;;;;;;;15.39;100.00;101349.16;5270174;28;20119;-64
2023/05/15 10:57:48;;;;;;;32.35;25.92;;;;;;;15.35;100.00;101345.06;5271327;28;20382;-64
2023/05/15 11:00:22;;;;;;;33.00;27.25;;;;;;;15.32;100.00;101341.78;5270253;28;20454;-64
2023/05/15 11:02:55;;;;;;;;;;;;;;;15.41;100.00;101344.50;5272449;28;20040;-65
2023/05/15 11:05:27;;;;;;;33.55;27.02;;;;;;;15.24;100.00;101345.16;5263547;28;19952;-64
2023/05/15 11:08:13;;;;;;;31.45;26.75;;;;;;;15.23;100.00;101340.78;5269086;28;20052;-64
2023/05/15 11:10:45;;;;;;;32.35;27.15;;;;;;;15.10;100.00;101344.53;5269059;28;20094;-64
2023/05/15 11:13:16;;;;;;;36.13;29.83;;;;;;;15.07;100.00;101341.25;5270772;28;20387;-64
2023/05/15 11:15:48;;;;;;;36.28;30.60;;;;;;;15.00;100.00;101338.28;5266312;28;20032;-64
2023/05/15 11:18:19;;;;;;;38.20;31.02;;;;;;;14.93;100.00;101345.16;5266331;28;20039;-64
2023/05/15 11:20:51;;;;;;;39.17;31.35;;;;;;;14.83;100.00;101338.88;5268568;28;20031;-65
2023/05/15 11:23:24;;;;;;;36.15;30.40;;;;;;;14.82;100.00;101338.03;5267262;28;20607;-64
2023/05/15 11:25:56;;;;;;;39.40;31.37;;;;;;;14.83;100.00;101341.56;5269752;28;20119;-64
2023/05/15 11:28:27;;;;;;;40.10;31.73;;;;;;;14.76;100.00;101330.50;5278957;28;20836;-64
2023/05/15 11:30:59;;;;;;;40.35;33.33;;;;;;;14.83;100.00;101336.19;5276479;28;20378;-64